Time;durP1;ratioP1;P1;durP2;ratioP2;P2;SDS_P1;SDS_P2;PMS_P1;PMS_P2;Temp;Humidity;BMP_temperature;BMP_pressure;BME280_temperature;BME280_humidity;BME280_pressure;Samples;Min_cycle;Max_cycle;Signal;HPM_P1;HPM_P2
2023/12/30 13:36:11;;;;;;;14.13;4.57;;;19.00;56.20;;;;;;5107794;27;20473;-58
2023/12/30 13:38:40;;;;;;;12.20;4.20;;;19.20;56.30;;;;;;5088730;28;20107;-57
2023/12/30 13:41:06;;;;;;;11.75;4.40;;;19.30;56.20;;;;;;5088637;28;20020;-57
2023/12/30 13:43:32;;;;;;;11.13;3.60;;;19.30;56.20;;;;;;5087008;28;20453;-58
2023/12/30 13:46:19;;;;;;;14.40;4.25;;;19.30;56.10;;;;;;5086656;28;20020;-58
2023/12/30 13:51:24;;;;;;;8.68;4.72;;;19.30;56.20;;;;;;5088665;28;20700;-57
2023/12/30 13:53:51;;;;;;;12.93;4.22;;;19.30;56.20;;;;;;5088729;28;20250;-58
2023/12/30 13:56:18;;;;;;;11.95;4.35;;;19.30;56.20;;;;;;5088214;28;20077;-58
2023/12/30 13:58:46;;;;;;;11.52;4.63;;;19.30;56.20;;;;;;5088495;28;20479;-58
2023/12/30 14:01:13;;;;;;;9.55;4.00;;;19.30;56.30;;;;;;5088308;28;20042;-58
2023/12/30 14:03:40;;;;;;;9.43;4.28;;;19.30;56.50;;;;;;5088421;28;20028;-58
2023/12/30 14:06:07;;;;;;;9.38;4.05;;;19.30;56.30;;;;;;5087037;28;20586;-59
2023/12/30 14:08:42;;;;;;;10.23;4.10;;;19.30;56.50;;;;;;5087149;28;20542;-60
2023/12/30 14:11:33;;;;;;;7.93;3.67;;;19.30;56.50;;;;;;5088591;28;20062;-60
2023/12/30 14:13:59;;;;;;;11.82;4.38;;;19.30;56.30;;;;;;5089163;28;20029;-62
2023/12/30 14:16:26;;;;;;;10.70;4.22;;;19.20;55.60;;;;;;5089564;28;20050;-60
2023/12/30 14:18:51;;;;;;;9.90;4.10;;;19.30;56.00;;;;;;5091433;28;20035;-59
2023/12/30 14:21:17;;;;;;;13.35;4.47;;;19.20;56.10;;;;;;5090164;28;20040;-58
2023/12/30 14:23:43;;;;;;;10.10;4.22;;;19.20;56.30;;;;;;5089468;28;20036;-59
2023/12/30 14:26:09;;;;;;;8.43;4.40;;;19.20;56.60;;;;;;5088112;28;20104;-57
2023/12/30 14:28:35;;;;;;;11.15;3.90;;;19.20;56.30;;;;;;5088178;28;20031;-60
2023/12/30 14:31:02;;;;;;;7.82;3.75;;;19.20;56.30;;;;;;5088105;28;20024;-60
2023/12/30 14:33:28;;;;;;;15.43;4.38;;;19.20;56.40;;;;;;5086936;28;20020;-60
2023/12/30 14:35:54;;;;;;;7.90;3.50;;;19.20;56.60;;;;;;5080802;28;20035;-59
2023/12/30 14:38:19;;;;;;;18.35;4.28;;;19.20;56.80;;;;;;5060655;28;20040;-62
2023/12/30 14:40:45;;;;;;;19.52;4.63;;;19.20;57.20;;;;;;5064520;28;20112;-61
2023/12/30 14:43:13;;;;;;;8.90;4.13;;;19.20;56.70;;;;;;5074811;28;20028;-61
2023/12/30 14:45:38;;;;;;;13.10;4.28;;;19.20;56.70;;;;;;5073269;28;20032;-61
2023/12/30 14:48:05;;;;;;;12.57;4.47;;;19.20;56.40;;;;;;5073934;28;20021;-61
2023/12/30 14:50:30;;;;;;;13.13;4.22;;;19.20;56.30;;;;;;5073392;28;20111;-61
2023/12/30 14:52:56;;;;;;;11.20;4.40;;;19.20;56.30;;;;;;5072308;28;20527;-61
2023/12/30 14:55:22;;;;;;;9.85;4.10;;;19.20;56.30;;;;;;5067788;28;20365;-61
2023/12/30 14:57:48;;;;;;;13.02;4.38;;;19.20;56.30;;;;;;5074725;28;20035;-60
2023/12/30 15:00:14;;;;;;;20.83;5.20;;;19.20;56.60;;;;;;5066253;28;20024;-58
2023/12/30 15:02:42;;;;;;;16.38;5.10;;;19.30;55.40;;;;;;5067174;28;20024;-60
2023/12/30 15:05:11;;;;;;;16.33;5.03;;;19.30;56.10;;;;;;5067389;28;20090;-58
2023/12/30 15:07:41;;;;;;;16.08;4.30;;;19.30;57.00;;;;;;5069883;28;20487;-60
2023/12/30 15:10:09;;;;;;;16.77;4.80;;;19.30;56.30;;;;;;5069988;28;20491;-59
2023/12/30 15:12:35;;;;;;;14.50;4.63;;;19.30;57.10;;;;;;5064180;28;20032;-55
2023/12/30 15:15:04;;;;;;;10.93;4.25;;;19.30;57.00;;;;;;5068913;28;20566;-60
2023/12/30 15:17:30;;;;;;;15.38;4.53;;;19.40;57.20;;;;;;5062225;28;20062;-59
2023/12/30 15:19:57;;;;;;;16.15;4.05;;;19.30;56.70;;;;;;5071890;28;20032;-59
2023/12/30 15:22:26;;;;;;;22.58;4.60;;;19.30;57.00;;;;;;5074960;28;20043;-59
2023/12/30 15:24:52;;;;;;;16.45;4.65;;;19.30;57.20;;;;;;5076122;28;20025;-57
2023/12/30 15:27:18;;;;;;;26.70;4.90;;;19.30;57.30;;;;;;5070673;28;20029;-60
2023/12/30 15:29:44;;;;;;;25.73;5.35;;;19.30;57.10;;;;;;5073300;28;20166;-60
2023/12/30 15:32:11;;;;;;;27.25;4.85;;;19.30;57.60;;;;;;5073385;28;20024;-60
2023/12/30 15:34:38;;;;;;;20.55;4.85;;;19.40;57.60;;;;;;5072661;28;20032;-61
2023/12/30 15:37:04;;;;;;;29.33;5.05;;;19.50;57.40;;;;;;5073114;28;20475;-53
2023/12/30 15:39:30;;;;;;;22.15;4.80;;;19.50;57.70;;;;;;5070447;28;20032;-58
2023/12/30 15:41:56;;;;;;;22.80;4.82;;;19.50;57.80;;;;;;5072997;28;20024;-59
2023/12/30 15:44:22;;;;;;;24.83;4.95;;;19.50;57.70;;;;;;5072676;28;20071;-57
2023/12/30 15:46:50;;;;;;;18.70;4.90;;;19.50;58.30;;;;;;5072523;28;20031;-57
2023/12/30 15:49:15;;;;;;;19.20;5.13;;;19.50;57.70;;;;;;5072524;28;20032;-59
2023/12/30 15:51:42;;;;;;;21.95;5.10;;;19.50;57.70;;;;;;5071539;28;20036;-59
2023/12/30 15:54:08;;;;;;;30.02;5.70;;;19.50;57.90;;;;;;5072671;28;20479;-59
2023/12/30 15:56:34;;;;;;;21.00;5.68;;;19.50;58.20;;;;;;5071321;28;20033;-57
2023/12/30 15:59:00;;;;;;;20.17;5.30;;;19.50;58.50;;;;;;5072859;28;20082;-58
2023/12/30 16:01:26;;;;;;;16.45;5.07;;;19.50;58.20;;;;;;5072787;28;20039;-60
2023/12/30 16:03:51;;;;;;;23.05;5.35;;;19.50;58.00;;;;;;5070809;28;20075;-58
2023/12/30 16:06:17;;;;;;;32.30;5.95;;;19.40;58.10;;;;;;5067075;28;20020;-59
2023/12/30 16:08:43;;;;;;;20.27;5.13;;;19.50;58.80;;;;;;5072318;28;20032;-57
2023/12/30 16:11:10;;;;;;;27.33;5.70;;;19.50;59.40;;;;;;5075253;28;20073;-59
2023/12/30 16:13:35;;;;;;;16.52;5.50;;;19.50;59.40;;;;;;5072189;28;20020;-59
2023/12/30 16:16:01;;;;;;;14.35;5.07;;;19.50;58.40;;;;;;5071869;28;20028;-60
2023/12/30 16:18:27;;;;;;;14.77;5.20;;;19.50;59.10;;;;;;5069575;28;20031;-59
2023/12/30 16:20:53;;;;;;;17.10;4.75;;;19.50;59.00;;;;;;5067009;28;20074;-59
2023/12/30 16:23:19;;;;;;;18.63;5.40;;;19.50;59.10;;;;;;5073532;28;20107;-58
2023/12/30 16:25:45;;;;;;;19.10;5.05;;;19.50;59.20;;;;;;5071579;28;20083;-57
2023/12/30 16:28:11;;;;;;;17.80;6.25;;;19.50;59.30;;;;;;5071703;28;20513;-59
2023/12/30 16:30:37;;;;;;;15.68;5.90;;;19.50;59.70;;;;;;5071778;28;20036;-59
2023/12/30 16:33:03;;;;;;;13.60;5.20;;;19.50;59.10;;;;;;5065213;28;20237;-59
2023/12/30 16:35:29;;;;;;;15.57;5.40;;;19.50;59.10;;;;;;5062119;28;20033;-59
2023/12/30 16:37:55;;;;;;;14.05;5.05;;;19.50;59.10;;;;;;5067447;28;20036;-59
2023/12/30 16:40:21;;;;;;;17.88;5.03;;;19.50;58.70;;;;;;5067735;28;20095;-59
2023/12/30 16:42:47;;;;;;;17.92;5.18;;;19.50;58.30;;;;;;5065826;28;20024;-58
2023/12/30 16:45:14;;;;;;;15.45;5.50;;;19.50;58.30;;;;;;5063637;28;20036;-60
2023/12/30 16:47:40;;;;;;;19.73;5.25;;;19.50;58.70;;;;;;5063229;28;20430;-60
2023/12/30 16:50:07;;;;;;;20.67;5.35;;;19.50;58.60;;;;;;5066428;28;20496;-59
2023/12/30 16:52:33;;;;;;;22.50;5.20;;;19.50;58.50;;;;;;5065983;28;20025;-62
2023/12/30 16:54:59;;;;;;;10.95;4.57;;;19.60;58.60;;;;;;5068282;28;20060;-62
2023/12/30 16:57:25;;;;;;;15.38;5.13;;;19.50;58.60;;;;;;5066990;28;20488;-63
2023/12/30 16:59:52;;;;;;;15.65;5.30;;;19.50;58.50;;;;;;5033336;28;20040;-63
2023/12/30 17:02:18;;;;;;;19.83;5.15;;;19.50;58.50;;;;;;5064589;28;20438;-63
2023/12/30 17:04:44;;;;;;;14.50;4.97;;;19.50;58.40;;;;;;5068226;28;20047;-63
2023/12/30 17:07:09;;;;;;;14.82;5.25;;;19.50;58.90;;;;;;5068741;28;20029;-62
2023/12/30 17:09:35;;;;;;;12.73;4.78;;;19.50;58.70;;;;;;5068822;28;20025;-63
2023/12/30 17:12:01;;;;;;;19.55;4.97;;;19.50;58.30;;;;;;5068299;28;20469;-63
2023/12/30 17:14:27;;;;;;;16.60;5.25;;;19.50;58.20;;;;;;5066893;28;20119;-62
2023/12/30 17:16:53;;;;;;;11.65;4.90;;;19.50;58.30;;;;;;5067221;28;20044;-61
2023/12/30 17:19:18;;;;;;;18.45;5.50;;;19.40;58.30;;;;;;5062027;28;20479;-63
2023/12/30 17:21:44;;;;;;;17.42;5.50;;;19.50;58.00;;;;;;5065330;28;20032;-63
2023/12/30 17:24:10;;;;;;;16.13;5.22;;;19.40;58.00;;;;;;5067377;28;20031;-64
2023/12/30 17:26:36;;;;;;;18.05;4.70;;;19.40;58.50;;;;;;5067344;28;20141;-64
2023/12/30 17:29:02;;;;;;;12.20;4.82;;;19.40;59.10;;;;;;5067643;28;20062;-62
2023/12/30 17:31:27;;;;;;;14.52;5.22;;;19.50;58.70;;;;;;5068581;28;20078;-63
2023/12/30 17:33:53;;;;;;;14.75;5.38;;;19.40;58.80;;;;;;5063597;28;20115;-63
2023/12/30 17:36:20;;;;;;;10.27;4.32;;;19.40;58.70;;;;;;5063662;28;20029;-64
2023/12/30 17:38:46;;;;;;;9.88;4.47;;;19.40;58.90;;;;;;5067505;28;20048;-64
2023/12/30 17:41:11;;;;;;;14.65;5.13;;;19.40;58.60;;;;;;5068541;28;20510;-63
2023/12/30 17:43:37;;;;;;;15.52;5.35;;;19.40;58.70;;;;;;5065636;28;20035;-64
2023/12/30 17:46:04;;;;;;;13.10;5.32;;;19.40;58.60;;;;;;5066509;28;20731;-64
2023/12/30 17:48:30;;;;;;;11.30;4.72;;;19.50;58.70;;;;;;5066892;28;20028;-63
2023/12/30 17:50:56;;;;;;;13.18;5.18;;;19.50;58.80;;;;;;5068405;28;20032;-63
2023/12/30 17:53:22;;;;;;;12.32;4.65;;;19.50;58.80;;;;;;5066022;28;20029;-63
2023/12/30 17:55:48;;;;;;;16.60;5.00;;;19.50;58.70;;;;;;5067623;28;20556;-64
2023/12/30 17:58:13;;;;;;;14.40;4.72;;;19.50;58.80;;;;;;5064155;28;20029;-64
2023/12/30 18:00:39;;;;;;;15.55;5.32;;;19.50;59.50;;;;;;5068536;28;20403;-64
2023/12/30 18:03:07;;;;;;;13.35;4.78;;;19.50;58.80;;;;;;5067649;28;20112;-64
2023/12/30 18:05:33;;;;;;;14.82;4.90;;;19.50;58.40;;;;;;5067984;28;20029;-64
2023/12/30 18:07:58;;;;;;;12.35;5.28;;;19.50;58.60;;;;;;5066674;28;20025;-65
2023/12/30 18:10:24;;;;;;;13.13;4.78;;;19.50;58.80;;;;;;5068463;28;20029;-63
2023/12/30 18:12:50;;;;;;;12.85;5.03;;;19.50;58.30;;;;;;5068143;28;20028;-64
2023/12/30 18:15:16;;;;;;;13.10;5.03;;;19.50;58.20;;;;;;5071675;28;20032;-64
2023/12/30 18:17:44;;;;;;;16.88;5.25;;;19.50;58.20;;;;;;5071529;28;20059;-65
2023/12/30 18:20:10;;;;;;;17.45;4.95;;;19.60;58.80;;;;;;5066888;28;20036;-64
2023/12/30 18:22:36;;;;;;;13.55;5.10;;;19.60;58.40;;;;;;5061628;28;20139;-64
2023/12/30 18:25:03;;;;;;;11.93;4.85;;;19.60;58.30;;;;;;5062677;28;20047;-63
2023/12/30 18:27:28;;;;;;;14.00;5.30;;;19.70;58.40;;;;;;5070622;28;20037;-64
2023/12/30 18:29:55;;;;;;;21.30;5.65;;;19.70;58.90;;;;;;5071173;28;20020;-64
2023/12/30 18:32:20;;;;;;;11.73;5.07;;;19.70;58.80;;;;;;5071489;28;20055;-64
2023/12/30 18:34:46;;;;;;;18.52;5.50;;;19.70;58.70;;;;;;5070105;28;20126;-62
2023/12/30 18:37:14;;;;;;;11.38;4.80;;;19.70;58.50;;;;;;5069914;28;20032;-63
2023/12/30 18:39:40;;;;;;;13.23;4.90;;;19.70;58.70;;;;;;5070308;28;20392;-63
2023/12/30 18:42:07;;;;;;;13.18;5.30;;;19.60;58.80;;;;;;5074496;28;20118;-63
2023/12/30 18:44:33;;;;;;;16.77;5.03;;;19.70;59.00;;;;;;5071513;28;20028;-63
2023/12/30 18:46:59;;;;;;;11.77;4.90;;;19.70;59.00;;;;;;5072173;28;20036;-62
2023/12/30 18:49:25;;;;;;;13.02;4.80;;;19.70;58.90;;;;;;5069768;28;20024;-62
2023/12/30 18:51:50;;;;;;;14.77;5.15;;;19.60;59.10;;;;;;5066990;28;20108;-62
2023/12/30 18:54:16;;;;;;;11.93;4.93;;;19.70;59.30;;;;;;5070877;28;20450;-64
2023/12/30 18:56:43;;;;;;;14.48;5.10;;;19.70;59.20;;;;;;5071851;28;20024;-64
2023/12/30 18:59:09;;;;;;;17.17;5.18;;;19.60;58.60;;;;;;5071546;28;20033;-64
2023/12/30 19:01:41;;;;;;;16.15;5.10;;;19.70;59.00;;;;;;5071911;28;20062;-64
2023/12/30 19:04:09;;;;;;;15.82;5.07;;;19.70;59.00;;;;;;5070660;28;20502;-63
2023/12/30 19:06:35;;;;;;;13.60;5.25;;;19.70;59.30;;;;;;5061972;28;20087;-64
2023/12/30 19:09:01;;;;;;;14.82;5.25;;;19.70;58.60;;;;;;5068195;28;20028;-64
2023/12/30 19:11:27;;;;;;;16.88;5.20;;;19.60;59.20;;;;;;5071445;28;20028;-64
2023/12/30 19:13:53;;;;;;;14.77;4.80;;;19.70;59.10;;;;;;5068988;28;20435;-63
2023/12/30 19:16:20;;;;;;;11.15;4.72;;;19.70;59.40;;;;;;5068683;28;20103;-64
2023/12/30 19:18:46;;;;;;;14.73;4.45;;;19.70;59.70;;;;;;5066216;28;20174;-64
2023/12/30 19:21:12;;;;;;;18.40;5.45;;;19.70;59.70;;;;;;5071223;28;20504;-64
2023/12/30 19:23:37;;;;;;;15.10;5.47;;;19.70;60.10;;;;;;5071119;28;20074;-63
2023/12/30 19:26:03;;;;;;;12.40;4.95;;;19.70;59.10;;;;;;5070886;28;20030;-63
2023/12/30 19:28:29;;;;;;;14.05;5.43;;;19.70;60.00;;;;;;5061201;28;20127;-64
2023/12/30 19:30:55;;;;;;;14.23;5.00;;;19.70;60.60;;;;;;5056686;28;20358;-63
2023/12/30 19:33:21;;;;;;;11.52;5.20;;;19.70;60.20;;;;;;5054083;28;20120;-64
2023/12/30 19:35:46;;;;;;;17.30;5.82;;;19.70;60.20;;;;;;5061588;28;20037;-64
2023/12/30 19:38:12;;;;;;;13.77;5.00;;;19.70;60.30;;;;;;5050888;28;20037;-64
2023/12/30 19:40:42;;;;;;;17.88;5.63;;;19.70;60.10;;;;;;5064703;28;20033;-63
2023/12/30 19:43:09;;;;;;;13.50;5.22;;;19.60;60.10;;;;;;5065158;28;20513;-63
2023/12/30 19:45:35;;;;;;;9.80;4.75;;;19.70;59.80;;;;;;5049169;28;20054;-63
2023/12/30 19:48:00;;;;;;;14.60;5.22;;;19.60;59.60;;;;;;5053487;28;20028;-63
2023/12/30 19:50:28;;;;;;;15.18;5.03;;;19.70;59.50;;;;;;5050875;28;20052;-64
2023/12/30 19:52:54;;;;;;;14.45;5.13;;;19.60;59.40;;;;;;5056366;28;20024;-64
2023/12/30 19:55:20;;;;;;;11.65;4.75;;;19.70;59.20;;;;;;5060093;28;20037;-63
2023/12/30 19:57:46;;;;;;;13.98;4.88;;;19.70;59.20;;;;;;5051348;28;20029;-63
2023/12/30 20:00:13;;;;;;;14.25;4.95;;;19.70;59.60;;;;;;5056504;28;20028;-63
2023/12/30 20:02:42;;;;;;;12.43;5.07;;;19.70;59.60;;;;;;5050607;28;20086;-63
2023/12/30 20:05:12;;;;;;;11.88;4.75;;;19.70;59.30;;;;;;5053347;28;20037;-63
2023/12/30 20:07:39;;;;;;;11.63;4.95;;;19.70;59.60;;;;;;5067824;28;20032;-62
2023/12/30 20:10:09;;;;;;;12.07;4.97;;;19.70;59.80;;;;;;5068696;28;20127;-63
2023/12/30 20:12:35;;;;;;;10.20;4.50;;;19.70;59.20;;;;;;5062190;28;20028;-65
2023/12/30 20:15:06;;;;;;;15.40;4.90;;;19.70;60.00;;;;;;5062944;28;20041;-64
2023/12/30 20:17:32;;;;;;;12.68;5.47;;;19.70;59.20;;;;;;5066998;28;20032;-64
2023/12/30 20:19:58;;;;;;;10.20;5.00;;;19.70;59.80;;;;;;5061382;28;20032;-62
2023/12/30 20:22:24;;;;;;;12.80;5.05;;;19.70;59.00;;;;;;5065809;28;20093;-63
2023/12/30 20:24:51;;;;;;;15.15;5.28;;;19.70;59.50;;;;;;5060511;28;20028;-63
2023/12/30 20:27:17;;;;;;;16.45;5.47;;;19.70;58.90;;;;;;5063804;28;20024;-63
2023/12/30 20:29:43;;;;;;;12.32;5.13;;;19.70;58.70;;;;;;5068336;28;20036;-66
2023/12/30 20:32:09;;;;;;;13.88;5.43;;;19.70;59.20;;;;;;5068122;28;20082;-64
2023/12/30 20:34:35;;;;;;;16.23;4.38;;;19.70;58.90;;;;;;5067166;28;20036;-62
2023/12/30 20:37:01;;;;;;;13.23;4.80;;;19.70;59.50;;;;;;5063895;28;20021;-65
2023/12/30 20:39:27;;;;;;;18.67;4.93;;;19.70;58.80;;;;;;5068164;28;20036;-62
2023/12/30 20:41:53;;;;;;;17.45;5.38;;;19.80;59.20;;;;;;5066184;28;20032;-64
2023/12/30 20:44:19;;;;;;;19.48;5.53;;;19.80;59.10;;;;;;5067940;28;20102;-64
2023/12/30 20:46:46;;;;;;;17.92;4.70;;;19.90;59.20;;;;;;5068070;28;20028;-59
2023/12/30 20:49:15;;;;;;;16.58;5.53;;;19.90;59.40;;;;;;5065502;28;20024;-63
2023/12/30 20:51:47;;;;;;;19.08;4.85;;;19.90;58.40;;;;;;5064619;28;20405;-63
2023/12/30 20:54:13;;;;;;;16.27;5.50;;;19.80;58.20;;;;;;5069101;28;20036;-63
2023/12/30 20:56:39;;;;;;;13.57;5.70;;;19.80;58.50;;;;;;5071075;28;20035;-62
2023/12/30 20:59:05;;;;;;;16.05;5.35;;;19.70;58.60;;;;;;5071644;28;20024;-63
2023/12/30 21:01:30;;;;;;;10.50;5.07;;;19.70;58.70;;;;;;5071712;28;20458;-63
2023/12/30 21:03:56;;;;;;;9.80;4.93;;;19.60;58.50;;;;;;5071609;28;20029;-62
2023/12/30 21:06:22;;;;;;;13.07;5.13;;;19.60;58.40;;;;;;5071387;28;20138;-63
2023/12/30 21:08:48;;;;;;;12.15;5.00;;;19.60;58.30;;;;;;5071675;28;20491;-62
2023/12/30 21:11:14;;;;;;;12.45;4.68;;;19.50;58.40;;;;;;5071667;28;20031;-63
2023/12/30 21:13:40;;;;;;;12.35;5.00;;;19.50;58.40;;;;;;5071598;28;20059;-63
2023/12/30 21:16:06;;;;;;;11.73;5.13;;;19.50;58.60;;;;;;5071237;28;20021;-63
2023/12/30 21:18:33;;;;;;;12.93;4.70;;;19.50;58.30;;;;;;5070499;28;20044;-63
2023/12/30 21:21:00;;;;;;;13.50;5.40;;;19.50;58.20;;;;;;5071528;28;20100;-63
2023/12/30 21:23:26;;;;;;;11.85;4.78;;;19.50;58.30;;;;;;5071481;28;20028;-63
2023/12/30 21:25:52;;;;;;;10.68;4.72;;;19.50;58.20;;;;;;5053145;28;20107;-64
2023/12/30 21:28:18;;;;;;;8.77;4.43;;;19.50;58.00;;;;;;5071308;28;20086;-63
2023/12/30 21:30:44;;;;;;;8.90;4.30;;;19.50;58.20;;;;;;5071360;28;20104;-63
2023/12/30 21:33:09;;;;;;;12.43;5.50;;;19.50;58.10;;;;;;5071411;28;20032;-64
2023/12/30 21:35:35;;;;;;;11.93;5.35;;;19.50;58.00;;;;;;5070983;28;20069;-63
2023/12/30 21:38:01;;;;;;;12.57;5.30;;;19.50;58.10;;;;;;5071339;28;20032;-63
2023/12/30 21:40:28;;;;;;;11.20;5.22;;;19.50;58.00;;;;;;5071312;28;20028;-63
2023/12/30 21:42:54;;;;;;;13.98;5.85;;;19.50;58.00;;;;;;5071249;28;20029;-63
2023/12/30 21:45:19;;;;;;;13.00;4.80;;;19.50;57.80;;;;;;5069779;28;20400;-63
2023/12/30 21:47:45;;;;;;;10.07;5.00;;;19.50;57.80;;;;;;5075314;28;20090;-63
2023/12/30 21:50:12;;;;;;;12.35;5.30;;;19.40;57.70;;;;;;5075246;28;20569;-63
2023/12/30 21:52:38;;;;;;;16.65;5.13;;;19.40;57.70;;;;;;5075193;28;20476;-63
2023/12/30 21:55:04;;;;;;;11.13;5.30;;;19.40;57.80;;;;;;5074934;28;20090;-63
2023/12/30 21:57:29;;;;;;;12.13;4.63;;;19.50;57.70;;;;;;5075032;28;20028;-62
2023/12/30 21:59:55;;;;;;;10.00;5.45;;;19.40;57.50;;;;;;5075019;28;20039;-63
2023/12/30 22:02:21;;;;;;;10.95;4.90;;;19.40;57.50;;;;;;5074997;28;20141;-63
2023/12/30 22:04:48;;;;;;;10.88;5.38;;;19.40;57.90;;;;;;5074527;28;20391;-63
2023/12/30 22:07:14;;;;;;;14.38;6.05;;;19.40;57.70;;;;;;5074923;28;20025;-63
2023/12/30 22:09:40;;;;;;;10.35;5.15;;;19.40;57.50;;;;;;5074815;28;20458;-63
2023/12/30 22:12:06;;;;;;;11.68;5.60;;;19.40;57.60;;;;;;5074661;28;20024;-63
2023/12/30 22:14:31;;;;;;;10.32;4.70;;;19.40;57.70;;;;;;5074680;28;20082;-63
2023/12/30 22:16:57;;;;;;;10.35;5.15;;;19.40;57.50;;;;;;5074833;28;20039;-62
2023/12/30 22:19:23;;;;;;;12.27;5.32;;;19.40;57.20;;;;;;5074775;28;20028;-63
2023/12/30 22:21:49;;;;;;;10.93;5.32;;;19.40;57.40;;;;;;5074694;28;20032;-63
2023/12/30 22:24:14;;;;;;;9.38;4.90;;;19.40;57.40;;;;;;5074384;28;20029;-63
2023/12/30 22:26:40;;;;;;;9.93;5.00;;;19.40;57.20;;;;;;5074519;28;20029;-64
2023/12/30 22:29:06;;;;;;;9.55;4.93;;;19.40;57.30;;;;;;5074678;28;20025;-62
2023/12/30 22:31:32;;;;;;;7.38;4.25;;;19.40;57.10;;;;;;5074779;28;20024;-63
2023/12/30 22:33:57;;;;;;;10.15;5.07;;;19.40;57.20;;;;;;5074855;28;20037;-62
2023/12/30 22:36:30;;;;;;;10.52;4.93;;;19.40;57.40;;;;;;5074456;28;20029;-63
2023/12/30 22:38:56;;;;;;;9.23;5.03;;;19.40;57.10;;;;;;5074654;28;20028;-63
2023/12/30 22:41:22;;;;;;;11.00;5.20;;;19.40;57.00;;;;;;5076172;28;20036;-65
2023/12/30 22:43:47;;;;;;;8.90;4.40;;;19.40;57.00;;;;;;5076747;28;20502;-63
2023/12/30 22:46:13;;;;;;;11.82;4.90;;;19.40;56.90;;;;;;5075015;28;20037;-63
2023/12/30 22:48:39;;;;;;;9.68;5.00;;;19.40;57.00;;;;;;5074937;28;20032;-62
2023/12/30 22:51:05;;;;;;;9.15;4.50;;;19.40;57.10;;;;;;5074287;28;20028;-63
2023/12/30 22:53:31;;;;;;;13.77;4.63;;;19.40;56.90;;;;;;5074238;28;20028;-62
2023/12/30 22:55:57;;;;;;;8.75;4.55;;;19.50;57.10;;;;;;5073888;28;20025;-63
2023/12/30 22:58:22;;;;;;;11.30;4.65;;;19.40;56.90;;;;;;5073707;28;20452;-63
2023/12/30 23:00:50;;;;;;;9.73;4.15;;;19.50;56.90;;;;;;5072813;28;20052;-62
2023/12/30 23:03:16;;;;;;;10.35;4.05;;;19.40;57.00;;;;;;5072934;28;20036;-62
2023/12/30 23:05:43;;;;;;;9.52;4.50;;;19.40;56.70;;;;;;5073466;28;20032;-63
2023/12/30 23:08:09;;;;;;;9.18;4.80;;;19.50;57.00;;;;;;5073825;28;20040;-63
2023/12/30 23:10:35;;;;;;;8.65;4.40;;;19.40;57.00;;;;;;5073751;28;20024;-63
2023/12/30 23:13:01;;;;;;;9.13;4.30;;;19.50;56.80;;;;;;5073744;28;20029;-63
2023/12/30 23:15:27;;;;;;;9.70;4.13;;;19.40;56.70;;;;;;5073293;28;20058;-63
2023/12/30 23:17:53;;;;;;;9.32;4.40;;;19.40;56.80;;;;;;5073757;28;20434;-64
2023/12/30 23:20:21;;;;;;;8.35;4.38;;;19.40;56.50;;;;;;5073414;28;20064;-63
2023/12/30 23:22:47;;;;;;;10.35;4.10;;;19.40;57.50;;;;;;5068857;28;20028;-63
2023/12/30 23:25:13;;;;;;;8.63;4.20;;;19.40;56.90;;;;;;5067891;28;20044;-63
2023/12/30 23:27:39;;;;;;;10.25;4.45;;;19.40;57.10;;;;;;5070542;28;20108;-62
2023/12/30 23:30:05;;;;;;;8.07;4.00;;;19.40;57.00;;;;;;5070347;28;20108;-63
2023/12/30 23:32:33;;;;;;;10.40;4.38;;;19.40;57.10;;;;;;5070248;28;20259;-64
2023/12/30 23:35:00;;;;;;;14.93;4.03;;;19.40;56.90;;;;;;5069870;28;20486;-64
2023/12/30 23:37:25;;;;;;;8.07;3.83;;;19.40;57.20;;;;;;5070329;28;20052;-63
2023/12/30 23:39:51;;;;;;;11.52;4.40;;;19.40;57.30;;;;;;5070032;28;20063;-63
2023/12/30 23:42:17;;;;;;;7.53;3.67;;;19.40;56.90;;;;;;5070288;28;20032;-63
2023/12/30 23:44:43;;;;;;;6.88;4.25;;;19.40;57.20;;;;;;5069118;28;20024;-63
2023/12/30 23:47:09;;;;;;;8.02;4.00;;;19.40;57.20;;;;;;5069906;28;20024;-63
2023/12/30 23:49:35;;;;;;;8.27;4.00;;;19.40;57.30;;;;;;5070615;28;20090;-63
2023/12/30 23:52:00;;;;;;;11.52;3.95;;;19.40;57.20;;;;;;5069579;28;20107;-62
2023/12/30 23:54:26;;;;;;;9.63;3.95;;;19.30;57.00;;;;;;5068332;28;20020;-62
2023/12/30 23:56:52;;;;;;;8.50;3.75;;;19.40;57.30;;;;;;5069855;28;20041;-62
2023/12/30 23:59:19;;;;;;;6.55;3.60;;;19.40;57.50;;;;;;5063052;28;20049;-63
